Time;durP1;ratioP1;P1;durP2;ratioP2;P2;SDS_P1;SDS_P2;PMS_P1;PMS_P2;Temp;Humidity;BMP_temperature;BMP_pressure;BME280_temperature;BME280_humidity;BME280_pressure;Samples;Min_cycle;Max_cycle;Signal;HPM_P1;HPM_P2
2024/01/01 00:01:51;;;;;;;45.17;23.92;;;;;;;7.17;100.00;99343.97;5056477;28;20428;-67
2024/01/01 00:04:23;;;;;;;40.53;21.00;;;;;;;7.15;100.00;99337.06;5049484;28;20043;-67
2024/01/01 00:06:53;;;;;;;34.10;19.98;;;;;;;7.25;100.00;99340.94;5061055;28;20057;-67
2024/01/01 00:09:23;;;;;;;24.92;14.45;;;;;;;7.26;100.00;99340.84;5076491;28;21243;-68
2024/01/01 00:11:51;;;;;;;29.75;13.77;;;;;;;7.23;100.00;99319.97;5064347;28;20418;-69
2024/01/01 00:14:18;;;;;;;25.35;12.15;;;;;;;7.33;100.00;99341.41;5060986;28;20169;-67
2024/01/01 00:16:46;;;;;;;21.38;11.00;;;;;;;7.37;100.00;99337.69;5045358;28;20404;-68
2024/01/01 00:19:16;;;;;;;21.40;11.68;;;;;;;7.36;100.00;99334.22;5035266;28;20067;-68
2024/01/01 00:21:45;;;;;;;35.15;16.90;;;;;;;7.36;100.00;99325.47;5062820;28;20043;-67
2024/01/01 00:24:12;;;;;;;30.63;16.83;;;;;;;7.32;100.00;99316.84;5067854;28;20129;-68
2024/01/01 00:26:42;;;;;;;30.10;18.00;;;;;;;7.45;100.00;99332.03;5081617;28;20044;-67
2024/01/01 00:29:10;;;;;;;34.35;20.42;;;;;;;7.30;100.00;99313.44;5063900;28;20768;-66
2024/01/01 00:31:50;;;;;;;32.90;20.42;;;;;;;7.45;100.00;99339.94;5073541;28;20040;-66
2024/01/01 00:34:19;;;;;;;35.65;21.45;;;;;;;7.44;100.00;99340.84;5074288;28;20113;-66
2024/01/01 00:36:50;;;;;;;34.28;20.88;;;;;;;7.47;100.00;99335.44;5081078;28;20045;-68
2024/01/01 00:39:18;;;;;;;36.95;20.40;;;;;;;7.55;100.00;99341.19;5074830;28;20102;-66
2024/01/01 00:41:47;;;;;;;31.02;19.40;;;;;;;7.54;100.00;99326.31;5055619;28;20576;-68
2024/01/01 00:44:15;;;;;;;33.05;19.70;;;;;;;7.49;100.00;99320.41;5056470;28;20825;-67
2024/01/01 00:46:43;;;;;;;30.58;18.05;;;;;;;7.45;100.00;99326.75;5075753;28;20040;-67
2024/01/01 00:49:12;;;;;;;27.48;16.17;;;;;;;7.33;100.00;99331.72;5064997;28;20049;-67
2024/01/01 00:51:42;;;;;;;32.92;19.25;;;;;;;7.36;100.00;99342.13;5058348;28;20500;-69
2024/01/01 00:54:11;;;;;;;29.33;18.90;;;;;;;7.36;100.00;99343.91;5070383;28;20044;-68
2024/01/01 00:56:39;;;;;;;35.22;18.92;;;;;;;7.33;100.00;99344.91;5054164;28;20070;-68
2024/01/01 00:59:10;;;;;;;31.30;18.80;;;;;;;7.35;100.00;99340.41;5062809;28;20063;-68
2024/01/01 01:01:38;;;;;;;33.55;20.30;;;;;;;7.40;100.00;99332.25;5067346;28;20145;-68
2024/01/01 01:04:09;;;;;;;31.67;18.17;;;;;;;7.43;100.00;99347.06;5059231;28;20055;-69
2024/01/01 01:06:38;;;;;;;34.63;19.10;;;;;;;7.40;100.00;99342.78;5060299;28;20055;-67
2024/01/01 01:09:09;;;;;;;34.47;21.13;;;;;;;7.42;100.00;99342.72;5063018;28;20044;-69
2024/01/01 01:11:40;;;;;;;39.53;23.02;;;;;;;7.39;100.00;99351.66;5046682;28;20041;-67
2024/01/01 01:14:14;;;;;;;35.70;22.58;;;;;;;7.33;100.00;99355.44;5066250;28;20531;-67
2024/01/01 01:16:43;;;;;;;38.95;23.67;;;;;;;7.31;100.00;99372.22;5061994;28;20055;-67
2024/01/01 01:19:12;;;;;;;39.30;25.33;;;;;;;7.25;100.00;99362.84;5060526;28;20116;-66
2024/01/01 01:21:40;;;;;;;41.35;25.17;;;;;;;7.20;100.00;99350.84;5071939;28;20048;-66
2024/01/01 01:24:07;;;;;;;45.22;25.98;;;;;;;6.97;100.00;99336.19;5062355;28;20058;-67
2024/01/01 01:26:35;;;;;;;44.40;26.20;;;;;;;7.14;100.00;99367.81;5069800;28;20574;-67
2024/01/01 01:29:03;;;;;;;43.85;27.63;;;;;;;7.12;100.00;99361.75;5051552;28;20106;-67
2024/01/01 01:31:32;;;;;;;42.60;26.83;;;;;;;7.04;100.00;99372.69;5054570;28;20174;-67
2024/01/01 01:34:01;;;;;;;44.03;26.60;;;;;;;7.02;100.00;99374.53;5055078;28;20044;-68
2024/01/01 01:36:29;;;;;;;48.83;27.42;;;;;;;7.08;100.00;99375.16;5056677;28;20057;-66
2024/01/01 01:38:58;;;;;;;40.58;26.20;;;;;;;7.02;100.00;99365.78;5054102;28;20036;-68
2024/01/01 01:41:26;;;;;;;39.60;24.25;;;;;;;7.08;100.00;99376.03;5050225;28;20045;-67
2024/01/01 01:43:56;;;;;;;44.83;26.33;;;;;;;7.12;100.00;99382.81;5055896;28;20053;-69
2024/01/01 01:46:25;;;;;;;40.97;24.63;;;;;;;7.16;100.00;99381.75;5055328;28;20083;-68
2024/01/01 01:48:54;;;;;;;37.90;23.83;;;;;;;7.16;100.00;99373.00;5050869;28;20084;-69
2024/01/01 01:51:24;;;;;;;37.88;22.83;;;;;;;7.24;100.00;99381.38;5049631;28;20047;-68
2024/01/01 01:53:52;;;;;;;35.70;21.25;;;;;;;7.20;100.00;99370.16;5068329;28;20040;-68
2024/01/01 01:56:22;;;;;;;35.53;22.70;;;;;;;7.15;100.00;99364.25;5056871;28;20094;-67
2024/01/01 01:58:52;;;;;;;36.20;22.10;;;;;;;7.14;100.00;99370.44;5075125;28;20045;-67
2024/01/01 02:01:20;;;;;;;35.58;21.75;;;;;;;7.20;100.00;99369.28;5039175;28;20056;-67
2024/01/01 02:03:48;;;;;;;33.15;18.35;;;;;;;7.21;100.00;99382.38;5054403;28;20166;-66
2024/01/01 02:06:17;;;;;;;30.58;18.13;;;;;;;7.16;100.00;99376.47;5056933;28;20049;-67
2024/01/01 02:08:45;;;;;;;34.75;19.73;;;;;;;7.13;100.00;99379.25;5061308;28;20424;-65
2024/01/01 02:11:13;;;;;;;24.20;16.33;;;;;;;7.08;100.00;99376.03;5054467;28;20040;-68
2024/01/01 02:13:41;;;;;;;30.50;17.75;;;;;;;7.10;100.00;99378.53;5056247;28;20045;-67
2024/01/01 02:16:11;;;;;;;31.38;17.83;;;;;;;7.10;100.00;99374.13;5058452;28;20067;-68
2024/01/01 02:18:40;;;;;;;28.00;16.52;;;;;;;7.04;100.00;99353.41;5052222;28;20091;-67
2024/01/01 02:21:08;;;;;;;27.92;15.68;;;;;;;7.10;100.00;99360.97;5047085;28;20051;-67
2024/01/01 02:23:39;;;;;;;26.35;15.85;;;;;;;7.13;100.00;99370.50;5047672;28;20053;-67
2024/01/01 02:26:08;;;;;;;26.63;15.45;;;;;;;7.19;100.00;99351.78;5054223;28;20446;-67
2024/01/01 02:28:36;;;;;;;28.98;14.95;;;;;;;7.21;100.00;99353.41;5061468;28;20052;-67
2024/01/01 02:31:05;;;;;;;26.27;14.07;;;;;;;7.27;100.00;99353.09;5051317;28;20052;-67
2024/01/01 02:33:33;;;;;;;25.60;13.25;;;;;;;7.27;100.00;99358.34;5049661;28;20056;-67
2024/01/01 02:36:01;;;;;;;26.40;13.07;;;;;;;7.27;100.00;99363.63;5049774;28;21533;-67
2024/01/01 02:38:29;;;;;;;26.83;16.45;;;;;;;7.26;100.00;99358.44;5055798;28;20044;-69
2024/01/01 02:40:59;;;;;;;22.83;13.70;;;;;;;7.25;100.00;99356.72;5054736;28;20138;-68
2024/01/01 02:43:27;;;;;;;25.10;12.48;;;;;;;7.35;100.00;99350.09;5054929;28;20045;-68
2024/01/01 02:45:55;;;;;;;20.25;11.95;;;;;;;7.35;100.00;99353.56;5054828;28;20044;-68
2024/01/01 02:48:23;;;;;;;21.65;11.52;;;;;;;7.31;100.00;99345.91;5053771;28;20044;-68
2024/01/01 02:50:51;;;;;;;19.25;10.27;;;;;;;7.33;100.00;99347.53;5048193;28;20133;-68
2024/01/01 02:53:18;;;;;;;22.15;10.30;;;;;;;7.32;100.00;99353.72;5050282;28;20045;-67
2024/01/01 02:55:46;;;;;;;21.70;10.10;;;;;;;7.32;100.00;99358.13;5054609;28;20451;-68
2024/01/01 02:58:16;;;;;;;18.10;9.77;;;;;;;7.26;100.00;99361.06;5054812;28;20121;-68
2024/01/01 03:00:47;;;;;;;15.68;8.93;;;;;;;7.26;100.00;99364.56;5056981;28;21802;-68
2024/01/01 03:03:16;;;;;;;19.65;9.27;;;;;;;7.22;100.00;99354.28;5052607;28;20045;-68
2024/01/01 03:05:44;;;;;;;21.05;10.98;;;;;;;7.32;100.00;99363.41;5051476;28;20080;-67
2024/01/01 03:08:11;;;;;;;19.73;9.73;;;;;;;7.42;100.00;99361.16;5074461;28;20056;-67
2024/01/01 03:10:40;;;;;;;15.00;8.25;;;;;;;7.42;100.00;99353.25;5044964;28;20052;-67
2024/01/01 03:13:08;;;;;;;16.95;7.45;;;;;;;7.40;100.00;99362.06;5056561;28;20083;-68
2024/01/01 03:15:37;;;;;;;15.20;7.88;;;;;;;7.39;100.00;99352.50;5053794;28;20048;-68
2024/01/01 03:18:05;;;;;;;14.88;6.43;;;;;;;7.37;100.00;99354.34;5058084;28;20048;-67
2024/01/01 03:20:37;;;;;;;16.50;7.13;;;;;;;7.34;100.00;99353.66;5053643;28;20063;-66
2024/01/01 03:23:05;;;;;;;11.70;5.95;;;;;;;7.35;100.00;99356.22;5056656;28;20052;-67
2024/01/01 03:25:35;;;;;;;12.10;6.05;;;;;;;7.33;100.00;99359.84;5057320;28;20068;-67
2024/01/01 03:28:03;;;;;;;11.63;5.68;;;;;;;7.42;100.00;99374.31;5061809;28;20040;-68
2024/01/01 03:30:31;;;;;;;13.23;5.35;;;;;;;7.42;100.00;99372.53;5063361;28;20043;-65
2024/01/01 03:33:02;;;;;;;14.38;5.38;;;;;;;7.35;100.00;99353.56;5051223;28;20047;-65
2024/01/01 03:35:31;;;;;;;14.05;4.43;;;;;;;7.39;100.00;99364.81;5056882;28;20041;-68
2024/01/01 03:37:59;;;;;;;15.50;4.10;;;;;;;7.38;100.00;99369.22;5053677;28;20049;-68
2024/01/01 03:40:28;;;;;;;11.27;4.28;;;;;;;7.42;100.00;99369.06;5058935;28;20049;-68
2024/01/01 03:42:56;;;;;;;7.95;3.55;;;;;;;7.42;100.00;99369.06;5072959;28;20393;-67
2024/01/01 03:45:26;;;;;;;10.35;3.15;;;;;;;7.43;100.00;99376.88;5055910;28;20052;-67
2024/01/01 03:47:53;;;;;;;8.18;3.22;;;;;;;7.36;100.00;99371.09;5028928;28;20052;-67
2024/01/01 03:50:23;;;;;;;11.13;3.70;;;;;;;7.34;100.00;99369.44;5056404;28;20045;-67
2024/01/01 03:52:51;;;;;;;11.52;3.47;;;;;;;7.36;100.00;99373.72;5058391;28;20051;-68
2024/01/01 03:55:19;;;;;;;11.52;3.47;;;;;;;7.40;100.00;99387.56;5074882;28;20049;-68
2024/01/01 03:57:47;;;;;;;9.98;3.50;;;;;;;7.42;100.00;99392.75;5058516;28;20055;-69
2024/01/01 04:00:16;;;;;;;12.18;4.10;;;;;;;7.42;100.00;99379.59;5060686;28;20049;-68
2024/01/01 04:02:46;;;;;;;9.77;3.63;;;;;;;7.49;100.00;99388.91;5055364;28;20045;-67
2024/01/01 04:05:14;;;;;;;9.32;3.45;;;;;;;7.51;100.00;99390.53;5057632;28;20041;-67
2024/01/01 04:07:44;;;;;;;11.85;3.78;;;;;;;7.49;100.00;99384.47;5056112;28;20148;-64
2024/01/01 04:10:13;;;;;;;11.73;3.80;;;;;;;7.49;100.00;99394.16;5054983;28;20099;-65
2024/01/01 04:12:41;;;;;;;11.73;3.83;;;;;;;7.51;100.00;99392.31;5061957;28;20108;-68
2024/01/01 04:15:12;;;;;;;12.52;3.55;;;;;;;7.55;100.00;99399.13;5050860;28;20564;-68
2024/01/01 04:17:40;;;;;;;6.30;3.00;;;;;;;7.53;100.00;99390.47;5058730;28;20048;-67
2024/01/01 04:20:10;;;;;;;13.75;3.55;;;;;;;7.59;100.00;99395.41;5061543;28;20128;-67
2024/01/01 04:22:40;;;;;;;;;;;;;;;7.62;100.00;99403.16;5049834;28;20047;-68
2024/01/01 04:25:10;;;;;;;11.93;3.03;;;;;;;7.50;100.00;99396.72;5064013;28;19931;-66
2024/01/01 04:27:39;;;;;;;10.68;3.22;;;;;;;7.50;100.00;99393.25;5060031;28;20060;-67
2024/01/01 04:30:08;;;;;;;9.38;2.65;;;;;;;7.58;100.00;99391.91;5059150;28;20037;-67
2024/01/01 04:32:36;;;;;;;13.15;2.90;;;;;;;7.58;100.00;99398.97;5057902;28;20048;-66
2024/01/01 04:35:05;;;;;;;7.60;2.60;;;;;;;7.56;100.00;99396.41;5074222;28;20114;-67
2024/01/01 04:37:33;;;;;;;11.27;2.65;;;;;;;7.58;100.00;99397.19;5057128;28;20049;-67
2024/01/01 04:40:02;;;;;;;8.02;2.10;;;;;;;7.58;100.00;99396.31;5060070;28;20220;-68
2024/01/01 04:42:31;;;;;;;8.32;2.40;;;;;;;7.59;100.00;99392.75;5053491;28;20540;-68
2024/01/01 04:45:01;;;;;;;10.00;2.33;;;;;;;7.56;100.00;99392.91;5049232;28;20112;-68
2024/01/01 04:47:28;;;;;;;11.60;2.45;;;;;;;7.53;100.00;99391.31;5080450;28;20570;-68
2024/01/01 04:49:56;;;;;;;9.65;2.42;;;;;;;7.53;100.00;99396.56;5077840;28;20056;-68
2024/01/01 04:52:24;;;;;;;8.98;1.80;;;;;;;7.53;100.00;99385.19;5049818;28;22026;-67
2024/01/01 04:54:55;;;;;;;8.90;2.40;;;;;;;7.53;100.00;99398.38;5076417;28;20619;-67
2024/01/01 04:57:23;;;;;;;14.13;2.30;;;;;;;7.49;100.00;99391.53;5061268;28;20136;-68
2024/01/01 04:59:52;;;;;;;11.95;2.67;;;;;;;7.42;100.00;99376.94;5063757;28;20078;-67
2024/01/01 05:02:21;;;;;;;10.82;2.30;;;;;;;7.38;100.00;99387.66;5050986;28;20112;-65
2024/01/01 05:04:53;;;;;;;8.95;2.08;;;;;;;7.31;100.00;99380.97;5074941;28;20452;-70
2024/01/01 05:07:21;;;;;;;9.20;2.20;;;;;;;7.37;100.00;99398.28;5063221;28;20053;-68
2024/01/01 05:09:49;;;;;;;12.25;1.88;;;;;;;7.31;100.00;99385.41;5060938;28;20052;-69
2024/01/01 05:12:17;;;;;;;7.40;2.38;;;;;;;7.36;100.00;99386.88;5042081;28;20041;-64
2024/01/01 05:14:44;;;;;;;8.45;1.80;;;;;;;7.32;100.00;99401.13;5059015;28;20041;-67
2024/01/01 05:17:14;;;;;;;7.22;1.10;;;;;;;7.35;100.00;99395.72;5053007;28;20044;-68
2024/01/01 05:19:41;;;;;;;6.72;1.20;;;;;;;7.39;100.00;99397.28;5070716;28;20082;-67
2024/01/01 05:22:10;;;;;;;6.75;1.55;;;;;;;7.38;100.00;99394.72;5052090;28;20069;-67
2024/01/01 05:24:37;;;;;;;7.38;1.35;;;;;;;7.31;100.00;99395.94;5068696;28;20071;-66
2024/01/01 05:27:07;;;;;;;6.97;1.15;;;;;;;7.26;100.00;99401.41;5067412;28;20044;-67
2024/01/01 05:29:35;;;;;;;6.53;1.17;;;;;;;7.21;100.00;99407.84;5051554;28;20754;-66
2024/01/01 05:32:04;;;;;;;2.70;0.85;;;;;;;7.20;100.00;99407.00;5065316;28;20053;-67
2024/01/01 05:34:33;;;;;;;7.43;1.23;;;;;;;7.21;100.00;99405.22;5070702;28;20039;-66
2024/01/01 05:37:01;;;;;;;9.32;1.63;;;;;;;7.19;100.00;99405.28;5056487;28;20058;-66
2024/01/01 05:39:29;;;;;;;7.13;1.88;;;;;;;7.16;100.00;99396.69;5051010;28;20044;-67
2024/01/01 05:41:56;;;;;;;8.45;1.27;;;;;;;7.15;100.00;99405.50;5059220;28;20651;-68
2024/01/01 05:44:24;;;;;;;5.90;1.23;;;;;;;7.13;100.00;99402.94;5070844;28;20060;-67
2024/01/01 05:46:52;;;;;;;7.10;1.45;;;;;;;7.10;100.00;99411.00;5079099;28;20056;-69
2024/01/01 05:49:21;;;;;;;7.60;1.50;;;;;;;7.06;100.00;99409.47;5074442;28;20051;-68
2024/01/01 05:51:51;;;;;;;7.88;1.13;;;;;;;6.95;100.00;99406.47;5058868;28;20071;-66
2024/01/01 05:54:19;;;;;;;7.45;1.73;;;;;;;6.85;100.00;99398.16;5037884;28;20126;-67
2024/01/01 05:56:48;;;;;;;12.98;2.08;;;;;;;6.74;100.00;99402.25;5074268;28;20048;-67
2024/01/01 05:59:16;;;;;;;6.70;1.48;;;;;;;6.71;100.00;99402.38;5074538;28;20048;-66
2024/01/01 06:01:45;;;;;;;10.68;1.67;;;;;;;6.66;100.00;99400.81;5052875;28;20769;-66
2024/01/01 06:04:13;;;;;;;6.50;1.42;;;;;;;6.67;100.00;99407.78;5041474;28;20040;-66
2024/01/01 06:06:41;;;;;;;10.27;1.50;;;;;;;6.67;100.00;99418.31;5057766;28;20056;-68
2024/01/01 06:09:10;;;;;;;7.53;1.35;;;;;;;6.65;100.00;99414.03;5061164;28;20048;-68
2024/01/01 06:11:38;;;;;;;7.82;1.45;;;;;;;6.61;100.00;99412.50;5051322;28;20610;-66
2024/01/01 06:14:06;;;;;;;9.32;1.25;;;;;;;6.60;100.00;99416.03;5048280;28;20052;-68
2024/01/01 06:16:34;;;;;;;6.28;1.17;;;;;;;6.55;100.00;99424.13;5056455;28;20139;-68
2024/01/01 06:19:02;;;;;;;9.70;1.30;;;;;;;6.55;100.00;99424.13;5058171;28;20089;-68
2024/01/01 06:21:30;;;;;;;8.43;2.13;;;;;;;6.61;100.00;99428.28;5055622;28;20155;-64
2024/01/01 06:23:58;;;;;;;8.80;1.50;;;;;;;6.58;100.00;99423.16;5062247;28;20084;-66
2024/01/01 06:26:27;;;;;;;5.50;1.23;;;;;;;6.58;100.00;99421.38;5072645;28;20048;-67
2024/01/01 06:28:57;;;;;;;10.52;1.83;;;;;;;6.63;100.00;99432.50;5069019;28;20052;-67
2024/01/01 06:31:25;;;;;;;5.80;1.40;;;;;;;6.68;100.00;99425.28;5049322;28;20040;-67
2024/01/01 06:33:52;;;;;;;5.85;1.20;;;;;;;6.75;100.00;99432.88;5049527;28;20040;-67
2024/01/01 06:36:21;;;;;;;10.98;1.38;;;;;;;6.75;100.00;99444.28;5054532;28;20079;-66
2024/01/01 06:38:49;;;;;;;12.82;1.58;;;;;;;6.78;100.00;99440.63;5068235;28;20146;-66
2024/01/01 06:41:18;;;;;;;9.65;1.55;;;;;;;6.78;100.00;99445.88;5060838;28;20057;-67
2024/01/01 06:43:48;;;;;;;10.35;1.20;;;;;;;6.78;100.00;99441.47;5063079;28;20045;-68
2024/01/01 06:46:16;;;;;;;8.23;1.20;;;;;;;6.87;100.00;99440.19;5063646;28;20115;-69
2024/01/01 06:48:44;;;;;;;8.18;1.40;;;;;;;6.80;100.00;99451.94;5067579;28;20055;-68
2024/01/01 06:51:12;;;;;;;6.88;1.40;;;;;;;6.72;100.00;99456.72;5070868;28;20044;-68
2024/01/01 06:53:40;;;;;;;6.85;1.10;;;;;;;6.71;100.00;99462.88;5072459;28;20599;-69
2024/01/01 06:56:08;;;;;;;4.05;0.98;;;;;;;6.71;100.00;99463.75;5062993;28;20069;-68
2024/01/01 06:58:41;;;;;;;7.55;1.35;;;;;;;6.72;100.00;99465.44;5074791;28;20440;-67
2024/01/01 07:01:10;;;;;;;8.88;1.15;;;;;;;6.67;100.00;99475.31;5062065;28;20071;-68
2024/01/01 07:03:41;;;;;;;6.18;1.10;;;;;;;6.62;100.00;99479.94;5053539;28;20155;-68
2024/01/01 07:06:09;;;;;;;6.85;1.20;;;;;;;6.58;100.00;99481.88;5045489;28;20067;-65
2024/01/01 07:08:38;;;;;;;6.65;1.38;;;;;;;6.66;100.00;99486.75;5074722;28;20032;-69
2024/01/01 07:11:07;;;;;;;7.35;1.20;;;;;;;6.64;100.00;99492.09;5070872;28;20770;-67
2024/01/01 07:13:37;;;;;;;8.65;1.00;;;;;;;6.51;100.00;99474.31;5067707;28;20048;-69
2024/01/01 07:16:05;;;;;;;7.07;0.90;;;;;;;6.59;100.00;99488.00;5062757;28;20048;-69
2024/01/01 07:18:35;;;;;;;5.00;0.88;;;;;;;6.62;100.00;99493.09;5060195;28;20420;-68
2024/01/01 07:21:06;;;;;;;8.43;1.38;;;;;;;6.67;100.00;99491.97;5054134;28;21114;-68
2024/01/01 07:23:34;;;;;;;7.10;0.90;;;;;;;6.67;100.00;99497.22;5053057;28;20056;-66
2024/01/01 07:26:02;;;;;;;9.57;1.42;;;;;;;6.62;100.00;99499.19;5062028;28;20043;-69
2024/01/01 07:28:31;;;;;;;4.75;1.13;;;;;;;6.48;100.00;99498.09;5058472;28;20040;-66
2024/01/01 07:30:59;;;;;;;2.95;0.65;;;;;;;6.42;100.00;99506.28;5071864;28;20695;-68
2024/01/01 07:33:28;;;;;;;6.50;1.40;;;;;;;6.42;100.00;99511.56;5054873;28;20037;-68
2024/01/01 07:35:58;;;;;;;5.32;1.08;;;;;;;6.39;100.00;99517.78;5059460;28;20040;-69
2024/01/01 07:38:26;;;;;;;4.53;0.85;;;;;;;6.29;100.00;99512.09;5049436;28;20055;-67
2024/01/01 07:40:54;;;;;;;5.50;0.80;;;;;;;6.30;100.00;99516.41;5064468;28;20044;-68
2024/01/01 07:43:23;;;;;;;4.60;0.77;;;;;;;6.33;100.00;99528.56;5069527;28;20051;-67
2024/01/01 07:45:51;;;;;;;4.43;1.00;;;;;;;6.37;100.00;99526.66;5061569;28;20040;-68
2024/01/01 07:48:19;;;;;;;7.78;0.77;;;;;;;6.44;100.00;99526.34;5076510;28;20046;-69
2024/01/01 07:50:47;;;;;;;5.40;1.10;;;;;;;6.50;100.00;99519.94;5060239;28;20036;-67
2024/01/01 07:53:16;;;;;;;9.43;1.75;;;;;;;6.44;100.00;99501.81;5059335;28;20051;-69
2024/01/01 07:55:44;;;;;;;4.13;1.02;;;;;;;6.62;100.00;99532.53;5073722;28;20089;-65
2024/01/01 07:58:14;;;;;;;4.43;1.20;;;;;;;6.67;100.00;99530.56;5053940;28;20055;-66
2024/01/01 08:00:41;;;;;;;9.07;1.40;;;;;;;6.73;100.00;99532.09;5061407;28;20048;-66
2024/01/01 08:03:11;;;;;;;8.50;1.50;;;;;;;6.85;100.00;99521.00;5050826;28;20053;-65
2024/01/01 08:05:39;;;;;;;6.82;1.50;;;;;;;6.83;100.00;99517.56;5068542;28;20068;-69
2024/01/01 08:08:08;;;;;;;12.98;1.60;;;;;;;6.96;100.00;99531.88;5070105;28;20459;-67
2024/01/01 08:10:38;;;;;;;11.55;2.00;;;;;;;6.98;100.00;99525.63;5072680;28;20059;-70
2024/01/01 08:13:06;;;;;;;7.40;1.55;;;;;;;7.04;100.00;99532.41;5044739;28;20076;-65
2024/01/01 08:15:34;;;;;;;7.45;1.65;;;;;;;7.03;100.00;99533.31;5070357;28;20117;-69
2024/01/01 08:18:03;;;;;;;12.98;1.30;;;;;;;7.13;100.00;99539.84;5062165;28;20171;-68
2024/01/01 08:20:32;;;;;;;8.82;1.67;;;;;;;7.25;100.00;99541.91;5053145;28;20045;-67
2024/01/01 08:23:01;;;;;;;10.52;1.48;;;;;;;7.33;100.00;99536.28;5054457;28;20048;-66
2024/01/01 08:25:29;;;;;;;10.77;1.80;;;;;;;7.36;100.00;99531.75;5059518;28;20045;-67
2024/01/01 08:27:59;;;;;;;7.40;1.48;;;;;;;7.26;100.00;99532.22;5042463;28;20041;-68
2024/01/01 08:30:27;;;;;;;7.10;1.50;;;;;;;7.27;100.00;99544.47;5063582;28;20507;-69
2024/01/01 08:32:56;;;;;;;6.65;1.48;;;;;;;7.18;100.00;99543.13;5049722;28;20052;-68
2024/01/01 08:35:25;;;;;;;5.75;1.15;;;;;;;7.09;100.00;99537.41;5066824;28;20043;-68
2024/01/01 08:37:53;;;;;;;8.95;1.63;;;;;;;7.04;100.00;99549.03;5056188;28;20048;-67
2024/01/01 08:40:21;;;;;;;8.32;1.58;;;;;;;6.93;100.00;99555.69;5044429;28;20782;-67
2024/01/01 08:42:50;;;;;;;7.57;1.30;;;;;;;6.89;100.00;99546.25;5050521;28;20058;-67
2024/01/01 08:45:20;;;;;;;9.52;2.08;;;;;;;6.88;100.00;99557.72;5047481;28;20505;-69
2024/01/01 08:47:48;;;;;;;9.57;1.60;;;;;;;6.86;100.00;99562.19;5053697;28;20501;-68
2024/01/01 08:50:16;;;;;;;9.45;1.52;;;;;;;7.03;100.00;99564.91;5069054;28;20584;-67
2024/01/01 08:52:44;;;;;;;9.43;1.45;;;;;;;7.12;100.00;99561.84;5071457;28;20033;-66
2024/01/01 08:55:13;;;;;;;8.60;1.30;;;;;;;7.25;100.00;99570.00;5065592;28;20060;-68
2024/01/01 08:57:42;;;;;;;10.88;1.85;;;;;;;7.40;100.00;99566.66;5060922;28;20134;-68
2024/01/01 09:00:12;;;;;;;12.95;1.80;;;;;;;7.44;100.00;99552.44;5054474;28;20539;-68
2024/01/01 09:02:44;;;;;;;8.45;1.92;;;;;;;7.51;100.00;99559.13;5057435;28;20049;-67
2024/01/01 09:05:12;;;;;;;7.20;1.65;;;;;;;7.59;100.00;99556.97;5065688;28;20044;-66
2024/01/01 09:07:40;;;;;;;7.88;2.05;;;;;;;7.72;100.00;99563.34;5055700;28;20055;-68
2024/01/01 09:10:10;;;;;;;10.13;1.75;;;;;;;7.88;100.00;99571.34;5059324;28;20535;-68
2024/01/01 09:12:38;;;;;;;8.82;1.75;;;;;;;7.93;100.00;99572.00;5061028;28;20040;-69
2024/01/01 09:15:08;;;;;;;14.25;2.35;;;;;;;7.93;100.00;99561.44;5052650;28;20039;-65
2024/01/01 09:17:36;;;;;;;13.23;1.80;;;;;;;8.07;100.00;99553.72;5055600;28;20052;-68
2024/01/01 09:20:08;;;;;;;8.57;1.30;;;;;;;8.15;100.00;99563.03;5076260;28;20040;-68
2024/01/01 09:22:37;;;;;;;6.78;1.30;;;;;;;8.21;100.00;99575.88;5072370;28;20040;-69
2024/01/01 09:25:05;;;;;;;9.90;1.58;;;;;;;8.25;100.00;99569.53;5064113;28;20798;-67
2024/01/01 09:27:33;;;;;;;9.48;2.22;;;;;;;8.12;100.00;99565.81;5062493;28;20509;-73
2024/01/01 09:30:04;;;;;;;8.85;1.60;;;;;;;8.15;100.00;99586.78;5073174;28;20120;-74
2024/01/01 09:32:32;;;;;;;9.27;1.60;;;;;;;8.24;100.00;99575.75;5064454;28;20071;-75
2024/01/01 09:35:00;;;;;;;9.73;1.98;;;;;;;8.38;100.00;99589.13;5065852;28;20049;-75
2024/01/01 09:37:29;;;;;;;7.70;1.58;;;;;;;8.37;100.00;99595.31;5063648;28;20044;-65
2024/01/01 09:39:57;;;;;;;11.07;1.67;;;;;;;8.24;100.00;99608.25;5061507;28;20047;-69
2024/01/01 09:42:26;;;;;;;8.10;1.58;;;;;;;8.15;100.00;99606.06;5055557;28;20045;-69
2024/01/01 09:44:54;;;;;;;7.97;1.30;;;;;;;8.05;100.00;99605.66;5064667;28;20130;-67
2024/01/01 09:47:21;;;;;;;11.43;2.60;;;;;;;8.06;100.00;99610.00;5069651;28;20045;-69
2024/01/01 09:49:50;;;;;;;10.55;1.77;;;;;;;8.04;100.00;99609.22;5056528;28;20048;-70
2024/01/01 09:52:18;;;;;;;7.97;1.25;;;;;;;8.07;100.00;99611.72;5069664;28;20139;-67
2024/01/01 09:54:47;;;;;;;7.25;1.30;;;;;;;8.00;100.00;99609.47;5059671;28;20052;-66
2024/01/01 09:57:15;;;;;;;5.68;0.80;;;;;;;8.06;100.00;99609.16;5069413;28;20048;-69
2024/01/01 09:59:43;;;;;;;8.50;1.20;;;;;;;8.02;100.00;99602.34;5070541;28;20139;-67
2024/01/01 10:02:14;;;;;;;7.95;1.45;;;;;;;8.04;100.00;99606.59;5069541;28;21398;-67
2024/01/01 10:04:42;;;;;;;5.25;0.77;;;;;;;7.91;100.00;99587.03;5061196;28;20120;-68
2024/01/01 10:07:10;;;;;;;7.15;1.30;;;;;;;7.98;100.00;99598.16;5059815;28;20171;-67
2024/01/01 10:09:49;;;;;;;5.68;1.13;;;;;;;8.06;100.00;99598.59;5071077;28;20051;-69
2024/01/01 10:12:25;;;;;;;9.65;1.52;;;;;;;8.13;100.00;99583.34;5067986;28;20508;-66
2024/01/01 10:14:53;;;;;;;5.88;1.30;;;;;;;8.19;100.00;99585.66;5050983;28;20480;-67
2024/01/01 10:17:21;;;;;;;5.30;1.42;;;;;;;8.15;100.00;99590.25;5071694;28;20048;-68
2024/01/01 10:19:51;;;;;;;7.43;1.33;;;;;;;8.02;100.00;99595.28;5054025;28;20060;-70
2024/01/01 10:22:23;;;;;;;10.88;1.40;;;;;;;7.88;100.00;99588.97;5057920;28;20045;-69
2024/01/01 10:24:54;;;;;;;9.70;1.70;;;;;;;7.78;100.00;99599.09;5051169;28;20187;-69
2024/01/01 10:27:23;;;;;;;12.60;2.05;;;;;;;7.72;100.00;99599.38;5070712;28;20048;-68
2024/01/01 10:29:51;;;;;;;10.20;1.83;;;;;;;7.67;100.00;99596.13;5069834;28;20400;-69
2024/01/01 10:32:20;;;;;;;9.85;1.55;;;;;;;7.74;100.00;99618.63;5052543;28;20076;-66
2024/01/01 10:34:48;;;;;;;7.35;1.95;;;;;;;7.74;100.00;99600.16;5049713;28;20057;-68
2024/01/01 10:37:18;;;;;;;9.50;2.25;;;;;;;7.81;100.00;99593.69;5061515;28;20041;-66
2024/01/01 10:39:48;;;;;;;11.95;1.88;;;;;;;7.90;100.00;99603.78;5053102;28;20128;-67
2024/01/01 10:42:18;;;;;;;15.13;2.00;;;;;;;7.98;100.00;99600.78;5055606;28;20075;-66
2024/01/01 10:44:47;;;;;;;13.35;2.30;;;;;;;7.83;100.00;99578.66;5050030;28;20625;-67
2024/01/01 10:47:16;;;;;;;13.85;2.65;;;;;;;7.91;100.00;99594.09;5038468;28;20068;-65
2024/01/01 10:49:52;;;;;;;16.98;2.45;;;;;;;7.85;100.00;99611.06;5053808;28;20053;-66
2024/01/01 10:52:40;;;;;;;11.10;2.58;;;;;;;7.89;100.00;99602.06;5053279;28;20138;-66
2024/01/01 10:55:23;;;;;;;14.48;3.45;;;;;;;7.90;100.00;99605.56;5064241;28;20067;-66
2024/01/01 10:58:14;;;;;;;13.88;2.25;;;;;;;7.97;100.00;99622.78;5057207;28;20068;-69
2024/01/01 11:00:51;;;;;;;10.90;2.47;;;;;;;8.07;100.00;99624.03;5056076;28;20059;-67
2024/01/01 11:03:19;;;;;;;10.88;2.15;;;;;;;8.12;100.00;99619.41;5073085;28;20040;-68
2024/01/01 11:05:50;;;;;;;15.23;2.55;;;;;;;8.12;100.00;99622.06;5053560;28;21846;-67
2024/01/01 11:08:26;;;;;;;14.68;2.53;;;;;;;8.08;100.00;99618.69;5063956;28;20048;-67
2024/01/01 11:10:55;;;;;;;13.68;2.60;;;;;;;8.05;100.00;99610.06;5074780;28;20060;-65
2024/01/01 11:14:00;;;;;;;14.35;2.22;;;;;;;8.06;100.00;99610.00;5057762;28;20124;-66
2024/01/01 11:16:49;;;;;;;11.55;2.30;;;;;;;8.13;100.00;99615.00;5059389;28;20059;-68
2024/01/01 11:19:39;;;;;;;13.30;2.22;;;;;;;8.08;100.00;99613.44;5058464;28;20048;-67
2024/01/01 11:22:30;;;;;;;7.80;2.00;;;;;;;8.15;100.00;99616.63;5073135;28;20086;-67
2024/01/01 11:25:00;;;;;;;13.38;2.67;;;;;;;8.22;100.00;99620.66;5042602;28;20544;-67
2024/01/01 11:27:31;;;;;;;11.48;2.15;;;;;;;8.24;100.00;99604.75;5046877;28;20067;-66
2024/01/01 11:30:02;;;;;;;15.55;2.00;;;;;;;8.14;100.00;99608.78;5060523;28;20051;-68
2024/01/01 11:32:36;;;;;;;12.27;2.20;;;;;;;8.09;100.00;99596.69;5060192;28;20044;-65
2024/01/01 11:35:11;;;;;;;15.80;3.00;;;;;;;8.21;100.00;99618.94;5052117;28;20053;-67
2024/01/01 11:37:42;;;;;;;15.18;2.70;;;;;;;8.29;100.00;99621.22;5062179;28;20682;-66